sensor_id;sensor_type;location;lat;lon;timestamp;P1;durP1;ratioP1;P2;durP2;ratioP2
48028;SDS011;33808;37.368;127.108;2023-02-11T00:02:42;3.25;;;2.42;;
48028;SDS011;33808;37.368;127.108;2023-02-11T00:06:11;4.78;;;3.38;;
48028;SDS011;33808;37.368;127.108;2023-02-11T00:09:39;4.35;;;2.95;;
48028;SDS011;33808;37.368;127.108;2023-02-11T00:13:08;5.68;;;3.03;;
48028;SDS011;33808;37.368;127.108;2023-02-11T00:16:37;4.45;;;3.17;;
48028;SDS011;33808;37.368;127.108;2023-02-11T00:20:06;4.90;;;2.95;;
48028;SDS011;33808;37.368;127.108;2023-02-11T00:23:34;5.57;;;3.15;;
48028;SDS011;33808;37.368;127.108;2023-02-11T00:27:03;4.20;;;3.00;;
48028;SDS011;33808;37.368;127.108;2023-02-11T00:30:32;4.80;;;2.92;;
48028;SDS011;33808;37.368;127.108;2023-02-11T00:34:01;5.05;;;3.60;;
48028;SDS011;33808;37.368;127.108;2023-02-11T00:37:29;5.20;;;3.33;;
48028;SDS011;33808;37.368;127.108;2023-02-11T00:40:58;5.68;;;3.45;;
48028;SDS011;33808;37.368;127.108;2023-02-11T00:44:27;5.10;;;3.70;;
48028;SDS011;33808;37.368;127.108;2023-02-11T00:47:56;4.75;;;3.22;;
48028;SDS011;33808;37.368;127.108;2023-02-11T00:51:25;5.10;;;3.63;;
48028;SDS011;33808;37.368;127.108;2023-02-11T00:54:53;4.22;;;3.22;;
48028;SDS011;33808;37.368;127.108;2023-02-11T00:58:24;5.68;;;3.67;;
48028;SDS011;33808;37.368;127.108;2023-02-11T01:01:53;5.95;;;3.42;;
48028;SDS011;33808;37.368;127.108;2023-02-11T01:05:23;4.05;;;3.08;;
48028;SDS011;33808;37.368;127.108;2023-02-11T01:08:52;4.97;;;3.42;;
48028;SDS011;33808;37.368;127.108;2023-02-11T01:11:35;4.68;;;3.60;;
48028;SDS011;33808;37.368;127.108;2023-02-11T01:14:05;4.68;;;2.97;;
48028;SDS011;33808;37.368;127.108;2023-02-11T01:17:34;5.55;;;3.30;;
48028;SDS011;33808;37.368;127.108;2023-02-11T01:21:03;4.88;;;3.50;;
48028;SDS011;33808;37.368;127.108;2023-02-11T01:24:32;4.10;;;2.95;;
48028;SDS011;33808;37.368;127.108;2023-02-11T01:28:01;5.60;;;3.60;;
48028;SDS011;33808;37.368;127.108;2023-02-11T01:31:30;4.65;;;3.28;;
48028;SDS011;33808;37.368;127.108;2023-02-11T01:34:58;4.95;;;3.35;;
48028;SDS011;33808;37.368;127.108;2023-02-11T01:37:28;6.10;;;4.28;;
48028;SDS011;33808;37.368;127.108;2023-02-11T01:40:00;4.20;;;3.40;;
48028;SDS011;33808;37.368;127.108;2023-02-11T01:42:32;5.28;;;3.80;;
48028;SDS011;33808;37.368;127.108;2023-02-11T01:45:41;5.22;;;3.67;;
48028;SDS011;33808;37.368;127.108;2023-02-11T01:48:06;3.72;;;3.22;;
48028;SDS011;33808;37.368;127.108;2023-02-11T01:50:40;6.53;;;3.95;;
48028;SDS011;33808;37.368;127.108;2023-02-11T01:53:11;5.15;;;3.63;;
48028;SDS011;33808;37.368;127.108;2023-02-11T01:56:10;4.47;;;3.67;;
48028;SDS011;33808;37.368;127.108;2023-02-11T01:59:00;4.60;;;3.50;;
48028;SDS011;33808;37.368;127.108;2023-02-11T02:01:35;4.50;;;3.67;;
48028;SDS011;33808;37.368;127.108;2023-02-11T02:04:09;4.70;;;3.35;;
48028;SDS011;33808;37.368;127.108;2023-02-11T02:06:47;4.35;;;3.47;;
48028;SDS011;33808;37.368;127.108;2023-02-11T02:09:28;4.50;;;3.47;;
48028;SDS011;33808;37.368;127.108;2023-02-11T02:12:05;3.88;;;2.75;;
48028;SDS011;33808;37.368;127.108;2023-02-11T02:14:41;5.70;;;3.28;;
48028;SDS011;33808;37.368;127.108;2023-02-11T02:17:34;6.78;;;3.10;;
48028;SDS011;33808;37.368;127.108;2023-02-11T02:20:50;4.45;;;2.65;;
48028;SDS011;33808;37.368;127.108;2023-02-11T02:36:36;3.08;;;2.28;;
48028;SDS011;33808;37.368;127.108;2023-02-11T02:39:47;2.90;;;2.35;;
48028;SDS011;33808;37.368;127.108;2023-02-11T02:43:16;2.88;;;2.20;;
48028;SDS011;33808;37.368;127.108;2023-02-11T02:46:45;2.92;;;2.25;;
48028;SDS011;33808;37.368;127.108;2023-02-11T02:50:15;2.80;;;2.35;;
48028;SDS011;33808;37.368;127.108;2023-02-11T02:54:20;2.58;;;2.15;;
48028;SDS011;33808;37.368;127.108;2023-02-11T03:07:57;3.33;;;2.72;;
48028;SDS011;33808;37.368;127.108;2023-02-11T03:10:37;3.47;;;2.40;;
48028;SDS011;33808;37.368;127.108;2023-02-11T03:13:11;3.42;;;2.28;;
48028;SDS011;33808;37.368;127.108;2023-02-11T03:15:47;2.78;;;2.10;;
48028;SDS011;33808;37.368;127.108;2023-02-11T03:18:22;2.50;;;2.20;;
48028;SDS011;33808;37.368;127.108;2023-02-11T03:20:55;2.20;;;2.00;;
48028;SDS011;33808;37.368;127.108;2023-02-11T03:23:34;2.58;;;2.30;;
48028;SDS011;33808;37.368;127.108;2023-02-11T03:29:16;3.58;;;2.40;;
48028;SDS011;33808;37.368;127.108;2023-02-11T03:34:46;3.33;;;1.80;;
48028;SDS011;33808;37.368;127.108;2023-02-11T03:40:06;2.05;;;1.80;;
48028;SDS011;33808;37.368;127.108;2023-02-11T03:42:47;2.60;;;2.03;;
48028;SDS011;33808;37.368;127.108;2023-02-11T03:45:21;3.05;;;2.20;;
48028;SDS011;33808;37.368;127.108;2023-02-11T03:47:54;2.53;;;2.15;;
48028;SDS011;33808;37.368;127.108;2023-02-11T03:50:34;3.25;;;2.38;;
48028;SDS011;33808;37.368;127.108;2023-02-11T03:53:05;3.03;;;1.90;;
48028;SDS011;33808;37.368;127.108;2023-02-11T03:55:37;2.67;;;1.98;;
48028;SDS011;33808;37.368;127.108;2023-02-11T03:58:09;2.58;;;1.80;;
48028;SDS011;33808;37.368;127.108;2023-02-11T04:00:39;2.50;;;2.08;;
48028;SDS011;33808;37.368;127.108;2023-02-11T04:03:11;3.53;;;2.55;;
48028;SDS011;33808;37.368;127.108;2023-02-11T04:05:41;2.92;;;2.38;;
48028;SDS011;33808;37.368;127.108;2023-02-11T04:08:11;2.75;;;2.15;;
48028;SDS011;33808;37.368;127.108;2023-02-11T04:10:41;2.67;;;2.10;;
48028;SDS011;33808;37.368;127.108;2023-02-11T04:14:09;3.20;;;2.15;;
48028;SDS011;33808;37.368;127.108;2023-02-11T04:17:38;2.88;;;2.08;;
48028;SDS011;33808;37.368;127.108;2023-02-11T04:21:07;2.72;;;2.13;;
48028;SDS011;33808;37.368;127.108;2023-02-11T04:24:36;3.78;;;2.20;;
48028;SDS011;33808;37.368;127.108;2023-02-11T04:28:04;4.55;;;2.20;;
48028;SDS011;33808;37.368;127.108;2023-02-11T04:31:33;2.38;;;1.92;;
48028;SDS011;33808;37.368;127.108;2023-02-11T04:35:02;4.05;;;2.20;;
48028;SDS011;33808;37.368;127.108;2023-02-11T04:38:31;6.47;;;2.47;;
48028;SDS011;33808;37.368;127.108;2023-02-11T04:41:00;3.78;;;1.90;;
48028;SDS011;33808;37.368;127.108;2023-02-11T04:44:29;3.15;;;2.30;;
48028;SDS011;33808;37.368;127.108;2023-02-11T04:47:58;2.67;;;2.15;;
48028;SDS011;33808;37.368;127.108;2023-02-11T04:51:28;2.72;;;2.05;;
48028;SDS011;33808;37.368;127.108;2023-02-11T04:54:56;3.42;;;2.42;;
48028;SDS011;33808;37.368;127.108;2023-02-11T04:58:25;3.70;;;2.25;;
48028;SDS011;33808;37.368;127.108;2023-02-11T05:01:54;4.45;;;2.20;;
48028;SDS011;33808;37.368;127.108;2023-02-11T05:05:23;2.63;;;2.00;;
48028;SDS011;33808;37.368;127.108;2023-02-11T05:08:51;2.83;;;1.90;;
48028;SDS011;33808;37.368;127.108;2023-02-11T05:12:20;3.65;;;2.22;;
48028;SDS011;33808;37.368;127.108;2023-02-11T05:15:49;2.65;;;2.45;;
48028;SDS011;33808;37.368;127.108;2023-02-11T05:19:17;3.70;;;2.08;;
48028;SDS011;33808;37.368;127.108;2023-02-11T05:22:46;3.28;;;2.30;;
48028;SDS011;33808;37.368;127.108;2023-02-11T05:26:15;2.75;;;2.33;;
48028;SDS011;33808;37.368;127.108;2023-02-11T05:29:44;2.50;;;2.22;;
48028;SDS011;33808;37.368;127.108;2023-02-11T05:33:13;3.50;;;2.38;;
48028;SDS011;33808;37.368;127.108;2023-02-11T05:36:41;2.28;;;2.00;;
48028;SDS011;33808;37.368;127.108;2023-02-11T05:40:10;2.88;;;2.15;;
48028;SDS011;33808;37.368;127.108;2023-02-11T05:43:39;2.70;;;1.77;;
48028;SDS011;33808;37.368;127.108;2023-02-11T05:47:08;3.67;;;2.60;;
48028;SDS011;33808;37.368;127.108;2023-02-11T05:50:37;2.50;;;2.05;;
48028;SDS011;33808;37.368;127.108;2023-02-11T05:54:06;3.55;;;2.35;;
48028;SDS011;33808;37.368;127.108;2023-02-11T06:00:06;2.95;;;2.05;;
48028;SDS011;33808;37.368;127.108;2023-02-11T06:03:35;4.13;;;2.58;;
48028;SDS011;33808;37.368;127.108;2023-02-11T06:07:03;3.05;;;2.13;;
48028;SDS011;33808;37.368;127.108;2023-02-11T06:10:32;3.03;;;2.30;;
48028;SDS011;33808;37.368;127.108;2023-02-11T06:14:01;2.50;;;1.95;;
48028;SDS011;33808;37.368;127.108;2023-02-11T06:17:30;3.30;;;2.30;;
48028;SDS011;33808;37.368;127.108;2023-02-11T06:20:59;3.85;;;2.60;;
48028;SDS011;33808;37.368;127.108;2023-02-11T06:24:27;3.03;;;2.72;;
48028;SDS011;33808;37.368;127.108;2023-02-11T06:27:17;4.45;;;3.15;;
48028;SDS011;33808;37.368;127.108;2023-02-11T06:30:46;3.60;;;2.60;;
48028;SDS011;33808;37.368;127.108;2023-02-11T06:34:15;3.22;;;2.45;;
48028;SDS011;33808;37.368;127.108;2023-02-11T06:37:44;3.30;;;2.50;;
48028;SDS011;33808;37.368;127.108;2023-02-11T06:41:13;3.50;;;2.40;;
48028;SDS011;33808;37.368;127.108;2023-02-11T06:44:41;3.83;;;2.42;;
48028;SDS011;33808;37.368;127.108;2023-02-11T06:48:10;3.38;;;2.55;;
48028;SDS011;33808;37.368;127.108;2023-02-11T06:51:39;3.22;;;2.40;;
48028;SDS011;33808;37.368;127.108;2023-02-11T06:55:08;2.47;;;1.90;;
48028;SDS011;33808;37.368;127.108;2023-02-11T06:58:38;2.75;;;2.13;;
48028;SDS011;33808;37.368;127.108;2023-02-11T07:02:09;3.38;;;2.45;;
48028;SDS011;33808;37.368;127.108;2023-02-11T07:05:35;3.40;;;2.40;;
48028;SDS011;33808;37.368;127.108;2023-02-11T07:09:04;3.55;;;2.42;;
48028;SDS011;33808;37.368;127.108;2023-02-11T07:12:33;2.47;;;2.20;;
48028;SDS011;33808;37.368;127.108;2023-02-11T07:16:05;2.92;;;2.33;;
48028;SDS011;33808;37.368;127.108;2023-02-11T07:19:33;2.85;;;2.13;;
48028;SDS011;33808;37.368;127.108;2023-02-11T07:23:02;2.88;;;1.92;;
48028;SDS011;33808;37.368;127.108;2023-02-11T07:26:31;3.63;;;2.70;;
48028;SDS011;33808;37.368;127.108;2023-02-11T07:30:00;3.40;;;2.47;;
48028;SDS011;33808;37.368;127.108;2023-02-11T07:33:28;2.53;;;2.20;;
48028;SDS011;33808;37.368;127.108;2023-02-11T07:36:57;2.85;;;2.25;;
48028;SDS011;33808;37.368;127.108;2023-02-11T07:40:26;3.30;;;2.25;;
48028;SDS011;33808;37.368;127.108;2023-02-11T07:43:55;3.13;;;2.47;;
48028;SDS011;33808;37.368;127.108;2023-02-11T07:47:24;4.47;;;3.00;;
48028;SDS011;33808;37.368;127.108;2023-02-11T07:50:52;5.32;;;3.05;;
48028;SDS011;33808;37.368;127.108;2023-02-11T07:54:01;5.68;;;2.78;;
48028;SDS011;33808;37.368;127.108;2023-02-11T07:57:30;6.22;;;2.58;;
48028;SDS011;33808;37.368;127.108;2023-02-11T08:19:50;4.05;;;2.90;;
48028;SDS011;33808;37.368;127.108;2023-02-11T08:22:20;3.97;;;2.35;;
48028;SDS011;33808;37.368;127.108;2023-02-11T08:24:49;3.80;;;2.55;;
48028;SDS011;33808;37.368;127.108;2023-02-11T08:27:19;5.03;;;2.88;;
48028;SDS011;33808;37.368;127.108;2023-02-11T08:30:48;3.30;;;2.63;;
48028;SDS011;33808;37.368;127.108;2023-02-11T08:34:17;3.47;;;2.53;;
48028;SDS011;33808;37.368;127.108;2023-02-11T08:37:45;2.58;;;2.13;;
48028;SDS011;33808;37.368;127.108;2023-02-11T08:41:14;2.97;;;2.50;;
48028;SDS011;33808;37.368;127.108;2023-02-11T08:44:43;2.38;;;2.03;;
48028;SDS011;33808;37.368;127.108;2023-02-11T08:47:13;3.05;;;2.20;;
48028;SDS011;33808;37.368;127.108;2023-02-11T08:50:43;3.15;;;2.35;;
48028;SDS011;33808;37.368;127.108;2023-02-11T08:54:14;3.88;;;2.17;;
48028;SDS011;33808;37.368;127.108;2023-02-11T08:57:43;2.65;;;2.13;;
48028;SDS011;33808;37.368;127.108;2023-02-11T09:01:12;3.55;;;2.15;;
48028;SDS011;33808;37.368;127.108;2023-02-11T09:04:41;7.32;;;2.00;;
48028;SDS011;33808;37.368;127.108;2023-02-11T09:08:09;8.27;;;1.88;;
48028;SDS011;33808;37.368;127.108;2023-02-11T09:11:39;2.47;;;1.60;;
48028;SDS011;33808;37.368;127.108;2023-02-11T09:15:07;2.35;;;1.73;;
48028;SDS011;33808;37.368;127.108;2023-02-11T09:18:36;2.25;;;1.55;;
48028;SDS011;33808;37.368;127.108;2023-02-11T09:21:07;3.45;;;1.50;;
48028;SDS011;33808;37.368;127.108;2023-02-11T09:23:37;2.25;;;1.30;;
48028;SDS011;33808;37.368;127.108;2023-02-11T09:27:06;1.70;;;1.40;;
48028;SDS011;33808;37.368;127.108;2023-02-11T09:30:36;1.90;;;1.40;;
48028;SDS011;33808;37.368;127.108;2023-02-11T09:34:04;1.67;;;1.48;;
48028;SDS011;33808;37.368;127.108;2023-02-11T09:37:33;1.85;;;1.63;;
48028;SDS011;33808;37.368;127.108;2023-02-11T09:41:02;2.08;;;1.50;;
48028;SDS011;33808;37.368;127.108;2023-02-11T09:44:19;2.38;;;1.65;;
48028;SDS011;33808;37.368;127.108;2023-02-11T09:48:11;1.90;;;1.65;;
48028;SDS011;33808;37.368;127.108;2023-02-11T09:50:56;1.88;;;1.58;;
48028;SDS011;33808;37.368;127.108;2023-02-11T09:54:35;3.65;;;2.30;;
48028;SDS011;33808;37.368;127.108;2023-02-11T09:57:42;3.00;;;2.00;;
48028;SDS011;33808;37.368;127.108;2023-02-11T10:01:15;2.75;;;2.40;;
48028;SDS011;33808;37.368;127.108;2023-02-11T10:11:01;3.20;;;2.55;;
48028;SDS011;33808;37.368;127.108;2023-02-11T10:23:59;5.05;;;2.88;;
48028;SDS011;33808;37.368;127.108;2023-02-11T10:27:32;4.50;;;2.60;;
48028;SDS011;33808;37.368;127.108;2023-02-11T10:30:58;3.03;;;2.42;;
48028;SDS011;33808;37.368;127.108;2023-02-11T10:33:53;3.40;;;2.53;;
48028;SDS011;33808;37.368;127.108;2023-02-11T10:37:20;4.43;;;3.15;;
48028;SDS011;33808;37.368;127.108;2023-02-11T10:40:48;3.75;;;2.88;;
48028;SDS011;33808;37.368;127.108;2023-02-11T10:44:25;4.05;;;2.65;;
48028;SDS011;33808;37.368;127.108;2023-02-11T10:47:54;5.25;;;3.03;;
48028;SDS011;33808;37.368;127.108;2023-02-11T10:51:24;3.95;;;2.92;;
48028;SDS011;33808;37.368;127.108;2023-02-11T10:54:55;4.07;;;3.03;;
48028;SDS011;33808;37.368;127.108;2023-02-11T10:58:25;4.10;;;2.97;;
48028;SDS011;33808;37.368;127.108;2023-02-11T11:01:53;5.45;;;3.45;;
48028;SDS011;33808;37.368;127.108;2023-02-11T11:05:17;5.70;;;2.85;;
48028;SDS011;33808;37.368;127.108;2023-02-11T11:08:45;3.63;;;3.25;;
48028;SDS011;33808;37.368;127.108;2023-02-11T11:12:30;4.85;;;3.10;;
48028;SDS011;33808;37.368;127.108;2023-02-11T11:16:07;4.10;;;3.15;;
48028;SDS011;33808;37.368;127.108;2023-02-11T13:08:29;2.80;;;2.13;;
48028;SDS011;33808;37.368;127.108;2023-02-11T13:11:07;4.55;;;2.53;;
48028;SDS011;33808;37.368;127.108;2023-02-11T13:14:36;3.65;;;2.33;;
48028;SDS011;33808;37.368;127.108;2023-02-11T13:21:29;2.65;;;1.80;;
48028;SDS011;33808;37.368;127.108;2023-02-11T13:24:57;3.13;;;2.38;;
48028;SDS011;33808;37.368;127.108;2023-02-11T13:27:52;2.97;;;1.90;;
48028;SDS011;33808;37.368;127.108;2023-02-11T13:30:28;2.92;;;2.00;;
48028;SDS011;33808;37.368;127.108;2023-02-11T13:33:03;2.95;;;2.03;;
48028;SDS011;33808;37.368;127.108;2023-02-11T13:38:28;3.10;;;1.92;;
48028;SDS011;33808;37.368;127.108;2023-02-11T13:47:13;3.17;;;2.30;;
48028;SDS011;33808;37.368;127.108;2023-02-11T13:50:38;3.30;;;2.20;;
48028;SDS011;33808;37.368;127.108;2023-02-11T13:54:17;2.55;;;2.03;;
48028;SDS011;33808;37.368;127.108;2023-02-11T13:57:39;2.58;;;2.13;;
48028;SDS011;33808;37.368;127.108;2023-02-11T14:00:53;2.78;;;2.15;;
48028;SDS011;33808;37.368;127.108;2023-02-11T14:04:23;2.50;;;1.80;;
48028;SDS011;33808;37.368;127.108;2023-02-11T14:11:04;2.40;;;1.52;;
48028;SDS011;33808;37.368;127.108;2023-02-11T14:14:02;2.13;;;1.60;;
48028;SDS011;33808;37.368;127.108;2023-02-11T14:24:50;2.72;;;1.65;;
48028;SDS011;33808;37.368;127.108;2023-02-11T14:27:34;5.50;;;1.95;;
48028;SDS011;33808;37.368;127.108;2023-02-11T14:39:21;3.53;;;1.48;;
48028;SDS011;33808;37.368;127.108;2023-02-11T14:42:34;6.18;;;1.92;;
48028;SDS011;33808;37.368;127.108;2023-02-11T14:46:03;10.20;;;1.83;;
48028;SDS011;33808;37.368;127.108;2023-02-11T14:49:32;2.63;;;2.10;;
48028;SDS011;33808;37.368;127.108;2023-02-11T14:53:00;5.05;;;1.95;;
48028;SDS011;33808;37.368;127.108;2023-02-11T14:56:29;2.90;;;2.10;;
48028;SDS011;33808;37.368;127.108;2023-02-11T15:00:15;3.10;;;2.20;;
48028;SDS011;33808;37.368;127.108;2023-02-11T15:03:42;2.78;;;1.92;;
48028;SDS011;33808;37.368;127.108;2023-02-11T15:07:10;3.20;;;1.92;;
48028;SDS011;33808;37.368;127.108;2023-02-11T15:10:42;3.00;;;2.28;;
48028;SDS011;33808;37.368;127.108;2023-02-11T15:14:22;2.47;;;1.88;;
48028;SDS011;33808;37.368;127.108;2023-02-11T15:17:43;2.75;;;2.03;;
48028;SDS011;33808;37.368;127.108;2023-02-11T15:20:25;3.83;;;2.70;;
48028;SDS011;33808;37.368;127.108;2023-02-11T15:23:03;5.25;;;2.20;;
48028;SDS011;33808;37.368;127.108;2023-02-11T15:25:43;3.72;;;2.50;;
48028;SDS011;33808;37.368;127.108;2023-02-11T15:28:20;3.83;;;2.72;;
48028;SDS011;33808;37.368;127.108;2023-02-11T15:30:57;3.53;;;2.20;;
48028;SDS011;33808;37.368;127.108;2023-02-11T15:33:32;3.22;;;2.25;;
48028;SDS011;33808;37.368;127.108;2023-02-11T15:36:01;4.30;;;2.28;;
48028;SDS011;33808;37.368;127.108;2023-02-11T15:38:31;2.95;;;2.20;;
48028;SDS011;33808;37.368;127.108;2023-02-11T15:41:02;3.33;;;2.03;;
48028;SDS011;33808;37.368;127.108;2023-02-11T15:43:48;4.55;;;2.30;;
48028;SDS011;33808;37.368;127.108;2023-02-11T15:46:21;4.15;;;2.20;;
48028;SDS011;33808;37.368;127.108;2023-02-11T15:48:52;4.80;;;2.63;;
48028;SDS011;33808;37.368;127.108;2023-02-11T15:51:27;2.85;;;2.28;;
48028;SDS011;33808;37.368;127.108;2023-02-11T15:54:04;3.03;;;2.05;;
48028;SDS011;33808;37.368;127.108;2023-02-11T15:56:44;3.50;;;2.20;;
48028;SDS011;33808;37.368;127.108;2023-02-11T15:59:24;4.35;;;2.00;;
48028;SDS011;33808;37.368;127.108;2023-02-11T16:02:24;2.30;;;2.10;;
48028;SDS011;33808;37.368;127.108;2023-02-11T16:05:00;3.03;;;2.17;;
48028;SDS011;33808;37.368;127.108;2023-02-11T16:10:18;3.42;;;2.58;;
48028;SDS011;33808;37.368;127.108;2023-02-11T16:13:00;4.47;;;2.25;;
48028;SDS011;33808;37.368;127.108;2023-02-11T16:15:45;3.08;;;2.47;;
48028;SDS011;33808;37.368;127.108;2023-02-11T16:21:05;3.35;;;2.42;;
48028;SDS011;33808;37.368;127.108;2023-02-11T16:24:36;4.25;;;2.50;;
48028;SDS011;33808;37.368;127.108;2023-02-11T16:27:17;4.35;;;2.58;;
48028;SDS011;33808;37.368;127.108;2023-02-11T16:30:36;4.90;;;2.50;;
48028;SDS011;33808;37.368;127.108;2023-02-11T16:34:15;5.47;;;2.30;;
48028;SDS011;33808;37.368;127.108;2023-02-11T16:37:33;5.40;;;2.38;;
48028;SDS011;33808;37.368;127.108;2023-02-11T16:41:02;2.53;;;2.20;;
48028;SDS011;33808;37.368;127.108;2023-02-11T16:44:33;3.15;;;2.42;;
48028;SDS011;33808;37.368;127.108;2023-02-11T16:48:01;2.78;;;2.10;;
48028;SDS011;33808;37.368;127.108;2023-02-11T16:51:30;3.10;;;2.22;;
48028;SDS011;33808;37.368;127.108;2023-02-11T16:54:59;3.95;;;2.80;;
48028;SDS011;33808;37.368;127.108;2023-02-11T16:58:28;4.65;;;2.95;;
48028;SDS011;33808;37.368;127.108;2023-02-11T17:01:23;2.88;;;2.05;;
48028;SDS011;33808;37.368;127.108;2023-02-11T17:04:53;4.65;;;2.58;;
48028;SDS011;33808;37.368;127.108;2023-02-11T17:08:24;3.38;;;2.50;;
48028;SDS011;33808;37.368;127.108;2023-02-11T17:11:56;3.00;;;2.25;;
48028;SDS011;33808;37.368;127.108;2023-02-11T17:15:25;3.25;;;2.25;;
48028;SDS011;33808;37.368;127.108;2023-02-11T17:18:53;4.20;;;2.70;;
48028;SDS011;33808;37.368;127.108;2023-02-11T17:22:22;4.35;;;2.70;;
48028;SDS011;33808;37.368;127.108;2023-02-11T17:25:54;3.60;;;2.42;;
48028;SDS011;33808;37.368;127.108;2023-02-11T17:29:23;3.53;;;2.22;;
48028;SDS011;33808;37.368;127.108;2023-02-11T17:32:51;3.38;;;2.60;;
48028;SDS011;33808;37.368;127.108;2023-02-11T17:36:20;3.55;;;2.67;;
48028;SDS011;33808;37.368;127.108;2023-02-11T17:39:48;5.05;;;2.60;;
48028;SDS011;33808;37.368;127.108;2023-02-11T17:43:18;4.18;;;2.63;;
48028;SDS011;33808;37.368;127.108;2023-02-11T17:46:46;3.90;;;2.65;;
48028;SDS011;33808;37.368;127.108;2023-02-11T17:50:15;2.78;;;2.22;;
48028;SDS011;33808;37.368;127.108;2023-02-11T17:53:44;3.28;;;2.53;;
48028;SDS011;33808;37.368;127.108;2023-02-11T17:57:13;4.07;;;2.63;;
48028;SDS011;33808;37.368;127.108;2023-02-11T18:00:41;6.00;;;2.67;;
48028;SDS011;33808;37.368;127.108;2023-02-11T18:04:15;3.95;;;2.58;;
48028;SDS011;33808;37.368;127.108;2023-02-11T18:07:42;3.15;;;2.40;;
48028;SDS011;33808;37.368;127.108;2023-02-11T18:11:14;3.10;;;2.30;;
48028;SDS011;33808;37.368;127.108;2023-02-11T18:14:42;3.42;;;2.45;;
48028;SDS011;33808;37.368;127.108;2023-02-11T18:38:34;3.42;;;2.35;;
48028;SDS011;33808;37.368;127.108;2023-02-11T18:41:05;3.58;;;2.17;;
48028;SDS011;33808;37.368;127.108;2023-02-11T18:43:35;3.67;;;2.60;;
48028;SDS011;33808;37.368;127.108;2023-02-11T18:46:07;3.88;;;2.70;;
48028;SDS011;33808;37.368;127.108;2023-02-11T18:48:39;2.92;;;2.17;;
48028;SDS011;33808;37.368;127.108;2023-02-11T18:51:13;3.00;;;2.50;;
48028;SDS011;33808;37.368;127.108;2023-02-11T18:53:45;2.85;;;2.13;;
48028;SDS011;33808;37.368;127.108;2023-02-11T18:56:17;3.65;;;2.33;;
48028;SDS011;33808;37.368;127.108;2023-02-11T18:58:48;3.58;;;2.85;;
48028;SDS011;33808;37.368;127.108;2023-02-11T19:02:17;3.03;;;2.60;;
48028;SDS011;33808;37.368;127.108;2023-02-11T19:05:47;3.13;;;2.22;;
48028;SDS011;33808;37.368;127.108;2023-02-11T19:09:16;3.22;;;2.40;;
48028;SDS011;33808;37.368;127.108;2023-02-11T19:12:43;4.78;;;3.03;;
48028;SDS011;33808;37.368;127.108;2023-02-11T19:16:12;3.63;;;2.60;;
48028;SDS011;33808;37.368;127.108;2023-02-11T19:19:41;4.53;;;2.95;;
48028;SDS011;33808;37.368;127.108;2023-02-11T19:22:33;4.55;;;2.70;;
48028;SDS011;33808;37.368;127.108;2023-02-11T19:26:02;3.70;;;2.53;;
48028;SDS011;33808;37.368;127.108;2023-02-11T19:29:31;5.57;;;2.60;;
48028;SDS011;33808;37.368;127.108;2023-02-11T19:32:59;4.20;;;2.95;;
48028;SDS011;33808;37.368;127.108;2023-02-11T19:36:28;3.42;;;2.55;;
48028;SDS011;33808;37.368;127.108;2023-02-11T19:39:57;3.13;;;2.60;;
48028;SDS011;33808;37.368;127.108;2023-02-11T19:43:26;3.58;;;2.60;;
48028;SDS011;33808;37.368;127.108;2023-02-11T19:46:54;4.10;;;2.80;;
48028;SDS011;33808;37.368;127.108;2023-02-11T19:50:23;4.25;;;2.85;;
48028;SDS011;33808;37.368;127.108;2023-02-11T19:53:52;3.97;;;2.70;;
48028;SDS011;33808;37.368;127.108;2023-02-11T19:57:21;3.63;;;2.55;;
48028;SDS011;33808;37.368;127.108;2023-02-11T20:00:49;3.97;;;2.53;;
48028;SDS011;33808;37.368;127.108;2023-02-11T20:04:18;4.13;;;2.67;;
48028;SDS011;33808;37.368;127.108;2023-02-11T20:07:47;3.15;;;2.45;;
48028;SDS011;33808;37.368;127.108;2023-02-11T20:11:16;4.00;;;2.70;;
48028;SDS011;33808;37.368;127.108;2023-02-11T20:14:44;3.83;;;2.65;;
48028;SDS011;33808;37.368;127.108;2023-02-11T20:18:13;4.57;;;2.85;;
48028;SDS011;33808;37.368;127.108;2023-02-11T20:21:42;4.05;;;2.70;;
48028;SDS011;33808;37.368;127.108;2023-02-11T20:25:11;4.18;;;2.88;;
48028;SDS011;33808;37.368;127.108;2023-02-11T20:28:40;4.28;;;3.03;;
48028;SDS011;33808;37.368;127.108;2023-02-11T20:32:08;5.82;;;3.00;;
48028;SDS011;33808;37.368;127.108;2023-02-11T20:35:37;4.07;;;3.00;;
